Mosca, Colorado
Current Conditions -  °F | °C
As of 2:52 PM on Monday 26 Jan 2015 (Local Time) from KALS Reporting Station
Clear Clear  
Wind Chill: 52°   Ceiling: Unl
Heat Index: 52°   Visibility: 10mi
Dew Point: 20°   Wind: 0mph
Humidity: 28%   Direction: NA
Pressure: 30.39"   Gusts: NA
Location:  37.65°N, 105.87°W
Report Text: KALS 262152Z AUTO 00000KT 10SM CLR 11/M07 A3039 RMK AO2 SLP300 T01111067
Loading
Personal Weather Stations






























Interactive Weather Map New forecast layout! Learn more

10-Day Weather Forecast

Advertisements
Track Severe Weather on mobile